Vancouver, British Columbia

4:50 PM PST on December 26, 2014 (GMT -0800)
Fibreco | Change Station
CLOSE
Current Station
Personal Weather Station
Location: North Vancouver, BRITISH COLUMBIA
Elevation: 40 ft
Nearby Weather Stations

Elev 40 ft 49.32 °N, 123.11 °W | Updated 3 seconds ago

Overcast
Overcast
41.1 °F
Feels Like 41 °F
N
1.0
Wind Variable Wind from ENE
Gusts 2.0 mph

Today
High -- | Low -- °F
--% Chance of Precip.
Yesterday
High -- | Low -- °F
Precip. -- in
8:07 AM 4:19 PM
Waxing Crescent, 31% visible
Pressure 30.36 in
Visibility 15.0 miles
Clouds Overcast 2700 ft
Windchill 41 °F
Dew Point 37 °F
Humidity 85%
Rainfall 0.00 in
Snow Depth Not available.
UV 0 out of 12
Pollen Not available.
Air Quality Not available.
Flu Activity Not available.
METAR CYVR 270000Z 10006KT 15SM OVC027 05/02 A3036 RMK SC8 SLP280

More Conditions Fewer Conditions

Pressure 30.36 in
Visibility 15.0 miles
Clouds Overcast 2700 ft
Windchill 41 °F
Dew Point 37 °F
Humidity 85%
Rainfall 0.00 in
Snow Depth Not available.
UV 0 out of 12
Pollen Not available.
Air Quality Not available.
Flu Activity Not available.
METAR CYVR 270000Z 10006KT 15SM OVC027 05/02 A3036 RMK SC8 SLP280

More Conditions Fewer Conditions

10-Day Weather Forecast

Almanac

Astronomy

Dec. 26, 2014 Rise Set
Actual Time
Civil Twilight
Nautical Twilight
Astronomical Twilight
Moon
Length of Visible Light
Length of Day
Tomorrow will be .
, % of the Moon is Illuminated

Today's Extremes

Country Highs Country Lows

Community

WunderPhotos

Upload Photos

1,780,799 photos uploaded!

WunderBlogs® & News

Nearby

Air Quality

  Air Quality AQ Index Pollutant
Not available.

Snow Depth

Station Depth Elevation

Earthquake Activity

City Distance Mag. Time & Date
Minimum magnitude displayed is 2.5.

Coastal Water Temperatures

Place Temperature

Nearby Weather Stations